createdAt,value
2018-01-26T00:00:08.445Z,962.68
2018-01-26T00:15:07.614Z,962.57
2018-01-26T00:30:04.733Z,962.84
2018-01-26T00:45:04.731Z,963.36
2018-01-26T01:00:04.843Z,963.36
2018-01-26T01:15:05.522Z,963.17
2018-01-26T01:30:04.588Z,963.41
2018-01-26T01:45:04.989Z,963.44
2018-01-26T02:00:06.137Z,963.33
2018-01-26T02:15:05.856Z,956.01
2018-01-26T02:30:05.016Z,955.96
2018-01-26T02:45:04.582Z,956.14
2018-01-26T03:00:04.540Z,956.22
2018-01-26T03:15:05.046Z,956.14
2018-01-26T03:30:06.456Z,956.36
2018-01-26T03:45:04.430Z,956.65
2018-01-26T04:00:04.975Z,956.81
2018-01-26T04:15:05.102Z,956.73
2018-01-26T04:30:04.892Z,956.79
2018-01-26T04:45:04.794Z,957.11
2018-01-26T05:00:04.679Z,957
2018-01-26T05:15:04.895Z,957.4
2018-01-26T05:30:08.102Z,957.8
2018-01-26T05:45:06.322Z,957.7
2018-01-26T06:00:07.326Z,957.86
2018-01-26T06:15:06.231Z,958.02
2018-01-26T06:30:04.846Z,958.2
2018-01-26T06:45:04.769Z,958.98
2018-01-26T07:00:37.615Z,958.82
2018-01-26T07:15:05.058Z,958.47
2018-01-26T07:30:06.224Z,958.44
2018-01-26T07:45:05.058Z,957.88
2018-01-26T08:00:04.962Z,957.53
2018-01-26T08:15:04.364Z,957.7
2018-01-26T08:30:04.995Z,964.3
2018-01-26T08:45:04.891Z,963.11
2018-01-26T09:00:05.257Z,963.06
2018-01-26T09:15:04.749Z,960.39
2018-01-26T09:30:04.365Z,960.25
2018-01-26T09:45:04.877Z,960.6
2018-01-26T10:00:05.399Z,960.85
2018-01-26T10:15:05.284Z,961.49
2018-01-26T10:30:05.024Z,961.09
2018-01-26T10:45:04.382Z,961.14
2018-01-26T11:00:04.689Z,961.14
2018-01-26T11:15:05.216Z,961.17
2018-01-26T11:30:04.284Z,960.14
2018-01-26T11:45:05.134Z,959.82
2018-01-26T12:00:04.615Z,959.87
2018-01-26T12:15:04.512Z,959.93
2018-01-26T12:30:04.674Z,959.71
2018-01-26T12:45:04.581Z,959.47
2018-01-26T13:00:05.011Z,959.6
2018-01-26T13:15:05.332Z,959.58
2018-01-26T13:30:08.366Z,959.47
2018-01-26T13:45:05.768Z,959.42
2018-01-26T14:00:05.254Z,959.5
2018-01-26T14:15:04.660Z,959.82
2018-01-26T14:30:04.360Z,959.87
2018-01-26T14:45:04.805Z,959.93
2018-01-26T15:00:05.321Z,960.17
2018-01-26T15:15:05.267Z,960.47
2018-01-26T15:30:05.502Z,960.85
2018-01-26T15:45:05.898Z,961.12
2018-01-26T16:00:05.550Z,961.52
2018-01-26T16:15:04.563Z,961.68
2018-01-26T16:30:05.518Z,962.33
2018-01-26T16:45:05.961Z,963.06
2018-01-26T17:00:07.473Z,963.57
2018-01-26T17:15:04.368Z,964.11
2018-01-26T17:30:04.960Z,964.27
2018-01-26T17:45:04.451Z,964.52
2018-01-26T18:00:05.154Z,964.71
2018-01-26T18:15:04.660Z,965.16
2018-01-26T18:30:04.381Z,965.57
2018-01-26T18:45:05.238Z,965.76
2018-01-26T19:00:04.713Z,966.24
2018-01-26T19:15:05.052Z,966.41
2018-01-26T19:30:05.691Z,966.54
2018-01-26T19:45:08.330Z,966.51
2018-01-26T20:00:05.311Z,966.73
2018-01-26T20:15:04.733Z,967.11
2018-01-26T20:30:04.836Z,967.7
2018-01-26T20:45:04.752Z,967.76
2018-01-26T21:00:04.741Z,967.49
2018-01-26T21:15:04.685Z,967.81
2018-01-26T21:30:04.750Z,967.81
2018-01-26T21:45:05.294Z,967.76
2018-01-26T22:00:04.713Z,967.84
2018-01-26T22:15:04.635Z,967.86
2018-01-26T22:30:05.174Z,968.11
2018-01-26T22:45:05.626Z,968.51
2018-01-26T23:00:05.062Z,968.81
2018-01-26T23:15:05.015Z,969.05
2018-01-26T23:30:06.147Z,969.32
2018-01-26T23:45:04.515Z,969.38
